Time;durP1;ratioP1;P1;durP2;ratioP2;P2;SDS_P1;SDS_P2;PMS_P1;PMS_P2;Temp;Humidity;BMP_temperature;BMP_pressure;BME280_temperature;BME280_humidity;BME280_pressure;Samples;Min_cycle;Max_cycle;Signal;HPM_P1;HPM_P2
2022/07/01 00:01:41;;;;;;;5.82;1.20;;;13.90;99.90;;;;;;5070882;28;20048;-76
2022/07/01 00:04:06;;;;;;;3.80;1.10;;;14.00;99.90;;;;;;5070035;28;20047;-76
2022/07/01 00:06:33;;;;;;;3.95;1.42;;;14.00;99.90;;;;;;5069927;28;20040;-75
2022/07/01 00:08:59;;;;;;;2.53;1.20;;;14.00;99.90;;;;;;5053596;28;20044;-77
2022/07/01 00:11:25;;;;;;;2.83;1.05;;;14.00;99.90;;;;;;5070839;28;20455;-78
2022/07/01 00:13:51;;;;;;;3.33;1.05;;;14.00;99.90;;;;;;5070240;28;20094;-75
2022/07/01 00:16:17;;;;;;;2.20;1.02;;;14.00;99.90;;;;;;5071001;28;20056;-76
2022/07/01 00:18:43;;;;;;;3.13;0.98;;;14.00;99.90;;;;;;5071396;28;20105;-76
2022/07/01 00:21:09;;;;;;;4.28;1.08;;;14.00;99.90;;;;;;5070996;28;20439;-75
2022/07/01 00:23:34;;;;;;;2.72;1.20;;;14.00;99.90;;;;;;5070637;28;20052;-78
2022/07/01 00:26:00;;;;;;;2.33;1.10;;;14.00;99.90;;;;;;5070213;28;20083;-77
2022/07/01 00:28:25;;;;;;;4.65;1.08;;;14.00;99.90;;;;;;5069867;28;20460;-77
2022/07/01 00:30:52;;;;;;;2.60;1.13;;;14.00;99.90;;;;;;5069988;28;20105;-76
2022/07/01 00:33:18;;;;;;;3.35;1.20;;;14.00;99.90;;;;;;5070030;28;20076;-77
2022/07/01 00:35:43;;;;;;;3.53;1.20;;;14.10;99.90;;;;;;5070037;28;20595;-76
2022/07/01 00:38:10;;;;;;;3.05;1.10;;;14.10;99.90;;;;;;5036223;28;20413;-76
2022/07/01 00:40:35;;;;;;;8.93;1.83;;;14.00;99.90;;;;;;5069740;28;20048;-77
2022/07/01 00:43:02;;;;;;;2.72;1.60;;;14.10;99.90;;;;;;5071016;28;20501;-76
2022/07/01 00:45:28;;;;;;;3.80;1.67;;;14.10;99.90;;;;;;5070806;28;20040;-77
2022/07/01 00:47:54;;;;;;;3.65;1.60;;;14.10;99.90;;;;;;5070510;28;20135;-78
2022/07/01 00:50:19;;;;;;;4.78;2.00;;;14.10;99.90;;;;;;5069450;28;20044;-76
2022/07/01 00:52:46;;;;;;;3.95;1.80;;;14.10;99.90;;;;;;5068882;28;20056;-77
2022/07/01 00:55:14;;;;;;;3.17;1.77;;;14.20;99.90;;;;;;5070985;28;20052;-76
2022/07/01 00:57:42;;;;;;;4.75;1.70;;;14.10;99.90;;;;;;5069500;28;20551;-77
2022/07/01 01:00:16;;;;;;;3.60;1.30;;;14.10;99.90;;;;;;5069635;28;20085;-76
2022/07/01 01:02:42;;;;;;;2.67;1.42;;;14.20;99.90;;;;;;5064919;28;20057;-76
2022/07/01 01:05:08;;;;;;;3.08;1.30;;;14.20;99.90;;;;;;5070844;28;20487;-76
2022/07/01 01:07:34;;;;;;;3.42;1.30;;;14.20;99.90;;;;;;5070444;28;20398;-76
2022/07/01 01:10:01;;;;;;;3.17;1.58;;;14.20;99.90;;;;;;5069515;28;20041;-76
2022/07/01 01:12:27;;;;;;;2.40;1.40;;;14.20;99.90;;;;;;5070472;28;20379;-76
2022/07/01 01:14:53;;;;;;;2.78;1.30;;;14.20;99.90;;;;;;5077600;28;20076;-76
2022/07/01 01:17:21;;;;;;;3.40;1.30;;;14.20;99.90;;;;;;5059190;28;20109;-75
2022/07/01 01:19:47;;;;;;;2.30;1.20;;;14.20;99.90;;;;;;5073499;28;20048;-75
2022/07/01 01:22:15;;;;;;;2.40;1.58;;;14.20;99.90;;;;;;5074350;28;20037;-75
2022/07/01 01:24:42;;;;;;;3.00;1.48;;;14.20;99.90;;;;;;5072720;28;20504;-75
2022/07/01 01:27:08;;;;;;;2.30;1.30;;;14.20;99.90;;;;;;5073428;28;20417;-75
2022/07/01 01:29:36;;;;;;;2.38;1.20;;;14.20;99.90;;;;;;5073529;28;20132;-76
2022/07/01 01:32:03;;;;;;;2.00;1.20;;;14.20;99.90;;;;;;5074022;28;20040;-77
2022/07/01 01:34:29;;;;;;;3.05;1.20;;;14.20;99.90;;;;;;5074323;28;20080;-76
2022/07/01 01:36:55;;;;;;;2.10;1.23;;;14.10;99.90;;;;;;5074406;28;20504;-76
2022/07/01 01:39:20;;;;;;;1.67;1.05;;;14.10;99.90;;;;;;5073182;28;20546;-76
2022/07/01 01:41:46;;;;;;;2.95;1.00;;;14.10;99.90;;;;;;5074068;28;20044;-76
2022/07/01 01:44:13;;;;;;;3.05;1.10;;;14.10;99.90;;;;;;5073201;28;20099;-77
2022/07/01 01:46:39;;;;;;;2.78;1.27;;;14.10;99.90;;;;;;5074272;28;20052;-76
2022/07/01 01:49:06;;;;;;;3.35;1.10;;;14.00;99.90;;;;;;5074126;28;20048;-76
2022/07/01 01:51:32;;;;;;;3.05;1.10;;;14.10;99.90;;;;;;5055918;28;20068;-76
2022/07/01 01:53:59;;;;;;;1.88;1.10;;;14.00;99.90;;;;;;5073350;28;20091;-79
2022/07/01 01:56:25;;;;;;;2.13;1.00;;;14.00;99.90;;;;;;5073007;28;20400;-77
2022/07/01 01:58:51;;;;;;;1.83;0.93;;;14.00;99.90;;;;;;5052840;28;20045;-77
2022/07/01 02:01:18;;;;;;;3.35;1.10;;;14.00;99.90;;;;;;5066743;28;20102;-76
2022/07/01 02:03:44;;;;;;;2.30;1.05;;;14.00;99.90;;;;;;5072427;28;20045;-77
2022/07/01 02:06:11;;;;;;;1.73;1.00;;;14.00;99.90;;;;;;5072516;28;20533;-77
2022/07/01 02:08:38;;;;;;;2.85;1.17;;;14.00;99.90;;;;;;5072520;28;20060;-77
2022/07/01 02:11:04;;;;;;;2.63;1.20;;;14.00;99.90;;;;;;5073554;28;20432;-76
2022/07/01 02:13:30;;;;;;;2.35;1.00;;;14.00;99.90;;;;;;5072691;28;20044;-76
2022/07/01 02:15:56;;;;;;;1.88;1.17;;;13.90;99.90;;;;;;5072733;28;20504;-76
2022/07/01 02:18:22;;;;;;;2.78;1.30;;;13.90;99.90;;;;;;5073289;28;20099;-76
2022/07/01 02:20:48;;;;;;;2.00;1.10;;;14.00;99.90;;;;;;5072309;28;20105;-76
2022/07/01 02:23:14;;;;;;;2.10;1.20;;;13.90;99.90;;;;;;5072563;28;20401;-76
2022/07/01 02:25:41;;;;;;;2.05;1.08;;;13.90;99.90;;;;;;5071707;28;20048;-76
2022/07/01 02:28:07;;;;;;;1.90;1.10;;;13.90;99.90;;;;;;5035845;28;20053;-77
2022/07/01 02:30:36;;;;;;;2.67;1.08;;;13.90;99.90;;;;;;5072186;28;20497;-77
2022/07/01 02:33:02;;;;;;;2.42;1.10;;;13.90;99.90;;;;;;5073306;28;20049;-75
2022/07/01 02:35:29;;;;;;;3.58;1.27;;;14.00;99.90;;;;;;5071864;28;20132;-77
2022/07/01 02:37:55;;;;;;;2.80;1.42;;;14.00;99.90;;;;;;5073196;28;20075;-76
2022/07/01 02:40:20;;;;;;;3.20;1.65;;;14.00;99.90;;;;;;5073134;28;20153;-76
2022/07/01 02:42:46;;;;;;;3.78;2.35;;;14.00;99.90;;;;;;5072685;28;20044;-75
2022/07/01 02:45:12;;;;;;;7.13;4.38;;;14.00;99.90;;;;;;5071819;28;20091;-76
2022/07/01 02:47:40;;;;;;;8.88;5.30;;;14.00;99.90;;;;;;5072005;28;20054;-77
2022/07/01 02:50:08;;;;;;;10.40;6.40;;;14.00;99.90;;;;;;5071678;28;20056;-76
2022/07/01 02:52:36;;;;;;;11.02;6.80;;;13.90;99.90;;;;;;5071066;28;20456;-77
2022/07/01 02:55:03;;;;;;;14.65;8.10;;;14.00;99.90;;;;;;5072936;28;20165;-76
2022/07/01 02:57:29;;;;;;;14.38;8.68;;;14.00;99.90;;;;;;5071240;28;20096;-76
2022/07/01 02:59:55;;;;;;;15.60;10.25;;;14.00;99.90;;;;;;5071374;28;20048;-76
2022/07/01 03:02:21;;;;;;;17.33;11.95;;;14.10;99.90;;;;;;5072861;28;20098;-76
2022/07/01 03:04:48;;;;;;;17.38;11.18;;;14.10;99.90;;;;;;5072534;28;20090;-76
2022/07/01 03:07:14;;;;;;;18.85;11.27;;;14.10;99.90;;;;;;5071381;28;20503;-75
2022/07/01 03:09:40;;;;;;;18.90;11.32;;;14.10;99.90;;;;;;5071652;28;20481;-75
2022/07/01 03:12:27;;;;;;;18.27;10.82;;;14.10;99.90;;;;;;5070843;28;20076;-75
2022/07/01 03:15:04;;;;;;;16.40;9.40;;;14.00;99.90;;;;;;5071034;28;20501;-76
2022/07/01 03:17:32;;;;;;;16.63;10.80;;;14.00;99.90;;;;;;5054475;28;20048;-74
2022/07/01 03:19:58;;;;;;;16.80;10.55;;;14.00;99.90;;;;;;5054521;28;20086;-75
2022/07/01 03:22:26;;;;;;;14.73;9.80;;;14.00;99.90;;;;;;5071048;28;20040;-76
2022/07/01 03:24:52;;;;;;;15.27;10.43;;;14.00;99.90;;;;;;5071167;28;20387;-76
2022/07/01 03:27:19;;;;;;;13.48;9.52;;;14.00;99.90;;;;;;5069188;28;20060;-75
2022/07/01 03:29:46;;;;;;;18.98;9.80;;;14.00;99.90;;;;;;5070384;28;20059;-75
2022/07/01 03:32:11;;;;;;;16.73;9.70;;;14.00;99.90;;;;;;5084050;28;20040;-77
2022/07/01 03:34:38;;;;;;;15.00;9.68;;;14.00;99.90;;;;;;5052844;28;20366;-75
2022/07/01 03:37:05;;;;;;;13.70;9.52;;;13.90;99.90;;;;;;5071253;28;20124;-75
2022/07/01 03:39:32;;;;;;;14.07;8.75;;;14.00;99.90;;;;;;5070453;28;20439;-76
2022/07/01 03:41:57;;;;;;;12.02;8.10;;;13.90;99.90;;;;;;5071805;28;20036;-76
2022/07/01 03:44:23;;;;;;;12.88;8.73;;;13.90;99.90;;;;;;5070770;28;20036;-74
2022/07/01 03:46:49;;;;;;;13.57;8.32;;;13.90;99.90;;;;;;5070452;28;20501;-74
2022/07/01 03:49:15;;;;;;;11.43;7.70;;;13.80;99.90;;;;;;5071550;28;20367;-75
2022/07/01 03:51:40;;;;;;;12.18;8.20;;;13.80;99.90;;;;;;5070071;28;20125;-75
2022/07/01 03:56:50;;;;;;;12.55;8.75;;;13.90;99.90;;;;;;5070758;28;20139;-76
2022/07/01 03:59:16;;;;;;;12.27;8.15;;;13.70;99.90;;;;;;5070237;28;20504;-75
2022/07/01 04:01:42;;;;;;;13.93;8.95;;;13.80;99.90;;;;;;5071314;28;20049;-76
2022/07/01 04:04:07;;;;;;;14.45;8.73;;;13.80;99.90;;;;;;5070156;28;20085;-75
2022/07/01 04:06:36;;;;;;;13.60;8.98;;;13.80;99.90;;;;;;5071543;28;20053;-75
2022/07/01 04:09:03;;;;;;;13.02;9.02;;;13.80;99.90;;;;;;5070439;28;20131;-76
2022/07/01 04:11:29;;;;;;;13.48;8.75;;;13.90;99.90;;;;;;5070014;28;20048;-76
2022/07/01 04:13:55;;;;;;;13.93;9.10;;;13.90;99.90;;;;;;5071128;28;20056;-75
2022/07/01 04:16:23;;;;;;;15.85;9.30;;;13.90;99.90;;;;;;5069963;28;20059;-76
2022/07/01 04:18:49;;;;;;;14.13;9.15;;;13.80;99.90;;;;;;5069603;28;20125;-76
2022/07/01 04:23:59;;;;;;;15.85;9.88;;;13.80;99.90;;;;;;5069446;28;20057;-75
2022/07/01 04:26:25;;;;;;;16.17;10.10;;;13.70;99.90;;;;;;5052932;28;20040;-75
2022/07/01 04:28:53;;;;;;;16.73;10.68;;;13.70;99.90;;;;;;5062114;28;20378;-75
2022/07/01 04:31:19;;;;;;;19.63;12.48;;;13.80;99.90;;;;;;5061611;28;20128;-75
2022/07/01 04:33:46;;;;;;;18.92;11.50;;;13.80;99.90;;;;;;5070931;28;20044;-75
2022/07/01 04:36:12;;;;;;;19.15;13.05;;;13.70;99.90;;;;;;5069810;28;20060;-75
2022/07/01 04:38:38;;;;;;;19.45;12.20;;;13.70;99.90;;;;;;5069566;28;20060;-76
2022/07/01 04:43:48;;;;;;;20.30;12.35;;;13.70;99.90;;;;;;5070006;28;20233;-75
2022/07/01 04:46:13;;;;;;;19.23;12.40;;;13.70;99.90;;;;;;5070988;28;20123;-75
2022/07/01 04:48:40;;;;;;;20.15;12.38;;;13.70;99.90;;;;;;5070631;28;20052;-75
2022/07/01 04:51:06;;;;;;;18.60;12.02;;;13.70;99.90;;;;;;5069459;28;20073;-74
2022/07/01 04:53:32;;;;;;;22.02;13.43;;;13.70;99.90;;;;;;5070729;28;20110;-75
2022/07/01 04:55:57;;;;;;;21.40;14.05;;;13.60;99.90;;;;;;5070918;28;20416;-75
2022/07/01 04:58:23;;;;;;;20.30;12.95;;;13.70;99.90;;;;;;5070835;28;20366;-75
2022/07/01 05:00:49;;;;;;;21.98;13.52;;;13.70;99.90;;;;;;5070609;28;20072;-75
2022/07/01 05:03:16;;;;;;;20.98;13.32;;;13.70;99.90;;;;;;5069605;28;20052;-75
2022/07/01 05:05:42;;;;;;;21.77;13.05;;;13.70;99.90;;;;;;5069172;28;20374;-75
2022/07/01 05:08:08;;;;;;;20.42;13.70;;;13.70;99.90;;;;;;5070590;28;20083;-75
2022/07/01 05:10:33;;;;;;;20.67;13.48;;;13.70;99.90;;;;;;5071084;28;20139;-75
2022/07/01 05:12:59;;;;;;;22.17;13.43;;;13.70;99.90;;;;;;5072970;28;20105;-69
2022/07/01 05:15:25;;;;;;;20.85;12.75;;;13.70;99.90;;;;;;5071912;28;20071;-69
2022/07/01 05:23:19;;;;;;;20.50;13.70;;;13.70;99.90;;;;;;5070459;28;20170;-68
2022/07/01 05:25:45;;;;;;;18.70;12.15;;;13.70;99.90;;;;;;5070627;28;20513;-69
2022/07/01 05:28:10;;;;;;;20.60;13.20;;;13.70;99.90;;;;;;5070668;28;20040;-69
2022/07/01 05:30:36;;;;;;;20.75;13.27;;;13.80;99.90;;;;;;5070220;28;20049;-69
2022/07/01 05:33:02;;;;;;;20.05;12.32;;;13.80;99.90;;;;;;5070582;28;20043;-69
2022/07/01 05:35:28;;;;;;;22.60;13.80;;;13.80;99.90;;;;;;5070564;28;20123;-69
2022/07/01 05:37:53;;;;;;;22.92;14.55;;;13.80;99.90;;;;;;5070548;28;20059;-68
2022/07/01 05:40:19;;;;;;;22.30;14.98;;;13.90;99.90;;;;;;5070237;28;20040;-69
2022/07/01 05:42:44;;;;;;;23.27;13.75;;;13.90;99.90;;;;;;5070239;28;20124;-68
2022/07/01 05:45:10;;;;;;;21.60;13.57;;;13.90;99.90;;;;;;5070800;28;20448;-69
2022/07/01 05:47:36;;;;;;;22.45;13.60;;;14.00;99.90;;;;;;5070673;28;20049;-69
2022/07/01 05:50:02;;;;;;;21.77;13.40;;;14.10;99.90;;;;;;5070315;28;20051;-68
2022/07/01 05:52:28;;;;;;;20.75;13.35;;;14.10;99.90;;;;;;5068712;28;20074;-69
2022/07/01 05:54:53;;;;;;;20.52;13.13;;;14.20;99.90;;;;;;5068878;28;20052;-69
2022/07/01 05:57:20;;;;;;;23.27;14.35;;;14.20;99.90;;;;;;5070145;28;20048;-69
2022/07/01 05:59:45;;;;;;;24.13;14.57;;;14.30;99.90;;;;;;5068883;28;20048;-68
2022/07/01 06:02:11;;;;;;;23.60;15.32;;;14.30;99.90;;;;;;5071676;28;20037;-67
2022/07/01 06:04:36;;;;;;;21.88;15.02;;;14.30;99.90;;;;;;5069557;28;20416;-68
2022/07/01 06:07:03;;;;;;;21.85;13.68;;;14.30;99.90;;;;;;5072034;28;20040;-68
2022/07/01 06:09:28;;;;;;;20.50;14.07;;;14.40;99.90;;;;;;5071497;28;20059;-68
2022/07/01 06:11:54;;;;;;;23.50;14.82;;;14.30;99.90;;;;;;5072757;28;20041;-68
2022/07/01 06:14:19;;;;;;;21.58;14.20;;;14.30;99.90;;;;;;5072552;28;20045;-67
2022/07/01 06:16:45;;;;;;;22.77;14.82;;;14.40;99.90;;;;;;5073667;28;20049;-68
2022/07/01 06:19:11;;;;;;;21.13;14.55;;;14.40;99.90;;;;;;5073493;28;20398;-68
2022/07/01 06:21:36;;;;;;;22.52;13.95;;;14.40;99.90;;;;;;5072602;28;20105;-68
2022/07/01 06:24:02;;;;;;;22.42;15.65;;;14.40;99.90;;;;;;5071466;28;20041;-68
2022/07/01 06:26:28;;;;;;;21.13;14.68;;;14.50;99.90;;;;;;5073418;28;20036;-68
2022/07/01 06:28:54;;;;;;;19.80;14.15;;;14.50;99.90;;;;;;5069938;28;20130;-68
2022/07/01 06:31:19;;;;;;;24.02;14.45;;;14.50;99.90;;;;;;5072969;28;20047;-68
2022/07/01 06:33:45;;;;;;;20.20;14.27;;;14.50;99.90;;;;;;5072941;28;20052;-68
2022/07/01 06:36:13;;;;;;;20.17;14.05;;;14.50;99.90;;;;;;5073074;28;20052;-68
2022/07/01 06:38:39;;;;;;;21.27;15.98;;;14.60;99.90;;;;;;5073033;28;20049;-68
2022/07/01 06:43:49;;;;;;;21.23;14.73;;;14.70;99.90;;;;;;5072345;28;20044;-68
2022/07/01 06:46:15;;;;;;;21.10;14.55;;;14.70;99.90;;;;;;5072795;28;20046;-69
2022/07/01 06:48:41;;;;;;;22.92;16.08;;;14.80;99.90;;;;;;5072966;28;20070;-69
2022/07/01 06:51:06;;;;;;;21.13;14.70;;;14.80;99.90;;;;;;5071956;28;20126;-68
2022/07/01 06:53:32;;;;;;;18.92;13.57;;;14.90;99.90;;;;;;5072572;28;20056;-68
2022/07/01 06:55:58;;;;;;;19.95;13.73;;;15.00;99.90;;;;;;5072838;28;20047;-68
2022/07/01 06:58:23;;;;;;;20.38;14.32;;;15.10;99.90;;;;;;5072285;28;20051;-68
2022/07/01 07:00:49;;;;;;;21.13;15.00;;;15.00;99.90;;;;;;5072436;28;20115;-68
2022/07/01 07:03:15;;;;;;;18.33;12.32;;;15.00;99.90;;;;;;5072664;28;20041;-68
2022/07/01 07:05:40;;;;;;;19.85;13.60;;;15.00;99.90;;;;;;5072190;28;20046;-68
2022/07/01 07:08:06;;;;;;;19.13;12.77;;;15.00;99.90;;;;;;5072864;28;20096;-68
2022/07/01 07:10:32;;;;;;;21.48;14.02;;;15.00;99.90;;;;;;5072194;28;20079;-68
2022/07/01 07:12:58;;;;;;;20.52;14.18;;;14.90;99.90;;;;;;5067978;28;20076;-68
2022/07/01 07:15:23;;;;;;;19.05;13.27;;;14.90;99.90;;;;;;5072078;28;20441;-67
2022/07/01 07:17:49;;;;;;;18.55;13.20;;;14.90;99.90;;;;;;5071919;28;20059;-68
2022/07/01 07:20:14;;;;;;;19.20;12.63;;;14.90;99.90;;;;;;5070996;28;20157;-68
2022/07/01 07:22:40;;;;;;;20.52;13.57;;;14.90;99.90;;;;;;5071447;28;20044;-68
2022/07/01 07:25:06;;;;;;;17.52;13.15;;;14.90;99.90;;;;;;5072078;28;20060;-68
2022/07/01 07:27:32;;;;;;;20.25;13.70;;;14.90;99.90;;;;;;5052827;28;20051;-68
2022/07/01 07:29:57;;;;;;;20.00;14.32;;;14.90;99.90;;;;;;5070423;28;20048;-68
2022/07/01 07:32:23;;;;;;;19.52;13.45;;;14.90;99.90;;;;;;5051824;28;20426;-68
2022/07/01 07:34:49;;;;;;;21.25;14.45;;;14.90;99.90;;;;;;5071962;28;20053;-68
2022/07/01 07:37:14;;;;;;;20.23;14.75;;;14.90;99.90;;;;;;5060265;28;20059;-68
2022/07/01 07:39:40;;;;;;;18.88;14.50;;;14.90;99.90;;;;;;5063343;28;20059;-68
2022/07/01 07:42:06;;;;;;;20.83;14.75;;;15.00;99.90;;;;;;5064346;28;20048;-68
2022/07/01 07:44:31;;;;;;;20.35;13.77;;;15.00;99.90;;;;;;5055451;28;20486;-68
2022/07/01 07:46:57;;;;;;;21.67;15.48;;;15.00;99.90;;;;;;5060280;28;20059;-68
2022/07/01 07:49:24;;;;;;;20.95;14.93;;;15.10;99.90;;;;;;5069426;28;20094;-68
2022/07/01 07:51:51;;;;;;;19.90;14.50;;;15.10;99.90;;;;;;5055259;28;20056;-69
2022/07/01 07:54:17;;;;;;;19.33;14.80;;;15.20;99.90;;;;;;5056671;28;20424;-69
2022/07/01 07:56:43;;;;;;;22.02;13.90;;;15.20;99.90;;;;;;5052016;28;20132;-68
2022/07/01 07:59:09;;;;;;;19.27;13.13;;;15.20;99.90;;;;;;5054519;28;20091;-68
2022/07/01 08:01:34;;;;;;;19.10;13.13;;;15.20;99.90;;;;;;5062396;28;20083;-68
2022/07/01 08:04:00;;;;;;;19.00;13.52;;;15.20;99.90;;;;;;5071223;28;20040;-68
2022/07/01 08:06:26;;;;;;;18.52;13.52;;;15.30;99.90;;;;;;5055690;28;20048;-69
2022/07/01 08:08:52;;;;;;;18.38;13.75;;;15.30;99.90;;;;;;5063230;28;20110;-68
2022/07/01 08:11:17;;;;;;;19.33;13.65;;;15.30;99.90;;;;;;5063018;28;20043;-69
2022/07/01 08:13:43;;;;;;;18.67;12.82;;;15.30;99.90;;;;;;5050792;28;20375;-69
2022/07/01 08:16:09;;;;;;;17.52;12.02;;;15.40;99.90;;;;;;5051515;28;20044;-68
2022/07/01 08:18:35;;;;;;;17.98;11.68;;;15.40;99.90;;;;;;5060531;28;20080;-68
2022/07/01 08:21:01;;;;;;;17.23;12.02;;;15.50;99.90;;;;;;5057756;28;20390;-68
2022/07/01 08:23:26;;;;;;;16.75;11.43;;;15.70;99.90;;;;;;5068583;28;20094;-68
2022/07/01 08:25:52;;;;;;;18.42;11.77;;;15.80;99.90;;;;;;5071346;28;20553;-68
2022/07/01 08:28:18;;;;;;;15.77;11.65;;;15.80;99.90;;;;;;5059407;28;20349;-68
2022/07/01 08:30:44;;;;;;;16.25;12.10;;;15.90;99.90;;;;;;5050684;28;20076;-68
2022/07/01 08:33:10;;;;;;;17.10;12.18;;;16.00;99.90;;;;;;5055888;28;20143;-68
2022/07/01 08:35:36;;;;;;;18.23;11.57;;;16.00;99.90;;;;;;5062311;28;20036;-68
2022/07/01 08:38:03;;;;;;;17.70;12.00;;;16.10;99.90;;;;;;5057874;28;20489;-68
2022/07/01 08:40:30;;;;;;;15.63;11.73;;;16.30;99.90;;;;;;5054665;28;20056;-71
2022/07/01 08:42:57;;;;;;;16.85;10.35;;;16.50;99.90;;;;;;5060323;28;20041;-68
2022/07/01 08:45:25;;;;;;;18.55;12.07;;;16.50;99.90;;;;;;5056449;28;20045;-69
2022/07/01 08:47:54;;;;;;;17.02;10.98;;;16.50;99.90;;;;;;5050790;28;20490;-68
2022/07/01 08:50:20;;;;;;;16.50;10.95;;;16.70;99.90;;;;;;5050138;28;20115;-68
2022/07/01 08:52:46;;;;;;;13.80;9.57;;;16.80;99.90;;;;;;5050207;28;20206;-68
2022/07/01 08:55:12;;;;;;;13.20;10.23;;;16.90;99.90;;;;;;5063253;28;20048;-68
2022/07/01 08:57:37;;;;;;;14.13;8.90;;;17.00;99.90;;;;;;5068806;28;20142;-69
2022/07/01 09:00:04;;;;;;;11.65;9.27;;;17.10;99.90;;;;;;5068306;28;20187;-68
2022/07/01 09:02:53;;;;;;;13.23;8.95;;;17.10;99.90;;;;;;5051885;28;20037;-69
2022/07/01 09:05:19;;;;;;;10.90;8.73;;;17.10;99.90;;;;;;5061657;28;20040;-68
2022/07/01 09:07:47;;;;;;;11.80;8.43;;;17.20;99.90;;;;;;5050281;28;20506;-68
2022/07/01 09:10:18;;;;;;;12.40;8.57;;;17.20;99.90;;;;;;5053027;28;20147;-69
2022/07/01 09:12:45;;;;;;;9.02;6.35;;;17.10;99.90;;;;;;5050201;28;20052;-69
2022/07/01 09:15:25;;;;;;;11.13;7.35;;;17.00;99.90;;;;;;5058816;28;20048;-69
2022/07/01 09:17:53;;;;;;;8.55;6.90;;;16.90;99.90;;;;;;5063494;28;20051;-68
2022/07/01 09:20:48;;;;;;;10.27;8.07;;;16.80;99.90;;;;;;5061034;28;20145;-69
2022/07/01 09:23:22;;;;;;;10.30;7.25;;;16.90;99.90;;;;;;5048914;28;20049;-68
2022/07/01 09:25:51;;;;;;;8.73;6.20;;;16.90;99.90;;;;;;5050346;28;20518;-68
2022/07/01 09:28:20;;;;;;;9.27;7.13;;;17.00;99.90;;;;;;5060622;28;20055;-69
2022/07/01 09:30:48;;;;;;;10.75;6.97;;;17.00;99.90;;;;;;5053253;28;20053;-68
2022/07/01 09:33:16;;;;;;;9.45;6.43;;;17.10;99.90;;;;;;5055966;28;20385;-69
2022/07/01 09:35:44;;;;;;;7.00;5.05;;;17.20;99.90;;;;;;5069528;28;20124;-68
2022/07/01 09:38:12;;;;;;;9.45;5.57;;;17.20;99.90;;;;;;5053350;28;20047;-68
2022/07/01 09:40:52;;;;;;;8.68;5.60;;;17.10;99.90;;;;;;5054898;28;20051;-68
2022/07/01 09:43:26;;;;;;;10.45;6.82;;;17.10;99.90;;;;;;5054632;28;20041;-69
2022/07/01 09:45:56;;;;;;;9.07;6.90;;;17.00;99.90;;;;;;5071568;28;20071;-69
2022/07/01 09:48:23;;;;;;;10.35;6.30;;;17.00;99.90;;;;;;5053306;28;20064;-68
2022/07/01 09:50:50;;;;;;;9.68;6.43;;;17.00;99.90;;;;;;5058511;28;20056;-68
2022/07/01 09:53:16;;;;;;;8.73;6.55;;;17.10;99.90;;;;;;5053915;28;20053;-71
2022/07/01 09:55:42;;;;;;;8.07;5.53;;;17.10;99.90;;;;;;5067475;28;20045;-69
2022/07/01 09:58:08;;;;;;;9.95;7.05;;;17.10;99.90;;;;;;5058213;28;20681;-68
2022/07/01 10:00:36;;;;;;;9.38;5.97;;;17.10;99.90;;;;;;5052354;28;20057;-68
2022/07/01 10:03:04;;;;;;;8.00;5.43;;;17.20;99.90;;;;;;5052854;28;20041;-68
2022/07/01 10:05:33;;;;;;;8.35;5.80;;;17.20;99.90;;;;;;5051393;28;20053;-68
2022/07/01 10:08:11;;;;;;;9.60;5.43;;;17.20;99.90;;;;;;5068443;28;20045;-68
2022/07/01 10:10:45;;;;;;;7.18;5.05;;;17.20;99.90;;;;;;5052586;28;20052;-69
2022/07/01 10:13:15;;;;;;;8.27;4.70;;;17.20;99.90;;;;;;5057446;28;20041;-68
2022/07/01 10:15:42;;;;;;;8.55;5.53;;;17.30;99.90;;;;;;5060049;28;20554;-68
2022/07/01 10:18:20;;;;;;;7.07;5.15;;;17.30;99.90;;;;;;5063718;28;20037;-68
2022/07/01 10:20:48;;;;;;;8.45;5.35;;;17.30;99.90;;;;;;5052889;28;20055;-68
2022/07/01 10:23:13;;;;;;;6.95;5.00;;;17.60;99.90;;;;;;5058653;28;20140;-69
2022/07/01 10:25:39;;;;;;;6.35;4.60;;;17.80;99.90;;;;;;5067848;28;20124;-67
2022/07/01 10:28:19;;;;;;;7.18;4.60;;;17.90;99.90;;;;;;5060881;28;20056;-67
2022/07/01 10:30:55;;;;;;;8.18;5.00;;;17.80;99.90;;;;;;5072463;28;20045;-68
2022/07/01 10:33:28;;;;;;;;;;;17.70;99.90;;;;;;5075379;28;20440;-69
2022/07/01 10:35:54;;;;;;;7.13;4.50;;;17.90;99.90;;;;;;5058013;28;19928;-69
2022/07/01 10:38:19;;;;;;;7.40;5.57;;;18.10;99.90;;;;;;5062627;28;20044;-69
2022/07/01 10:40:48;;;;;;;9.57;5.47;;;18.30;99.90;;;;;;5066777;28;20401;-69
2022/07/01 10:43:31;;;;;;;8.05;5.40;;;18.50;99.90;;;;;;5066027;28;20072;-69
2022/07/01 10:45:57;;;;;;;6.50;4.40;;;18.60;99.90;;;;;;5051893;28;20102;-69
2022/07/01 10:48:24;;;;;;;5.93;4.65;;;18.60;99.90;;;;;;5059560;28;20044;-69
2022/07/01 10:50:51;;;;;;;6.45;4.20;;;18.50;99.90;;;;;;5060425;28;20052;-68
2022/07/01 10:53:18;;;;;;;6.38;4.53;;;18.30;99.90;;;;;;5051779;28;20072;-68
2022/07/01 10:55:52;;;;;;;7.00;3.95;;;18.30;99.90;;;;;;5060803;28;20123;-69
2022/07/01 10:58:21;;;;;;;5.53;4.00;;;18.30;99.90;;;;;;5052832;28;20053;-68
2022/07/01 11:00:50;;;;;;;6.47;4.00;;;18.30;99.90;;;;;;5072129;28;20051;-69
2022/07/01 11:03:21;;;;;;;5.75;3.15;;;18.40;99.90;;;;;;5051825;28;20041;-69
2022/07/01 11:05:50;;;;;;;4.70;3.15;;;18.50;99.90;;;;;;5052046;28;20583;-68
2022/07/01 11:08:16;;;;;;;5.38;3.63;;;18.70;99.90;;;;;;5052249;28;20049;-70
2022/07/01 11:10:42;;;;;;;5.88;3.75;;;18.70;99.90;;;;;;5056847;28;20050;-68
2022/07/01 11:13:13;;;;;;;4.78;3.40;;;18.80;99.90;;;;;;5059842;28;20435;-69
2022/07/01 11:15:39;;;;;;;5.30;3.80;;;18.70;99.90;;;;;;5055691;28;20055;-69
2022/07/01 11:18:04;;;;;;;5.15;3.78;;;18.80;99.90;;;;;;5058180;28;20040;-69
2022/07/01 11:20:32;;;;;;;4.28;2.75;;;18.80;99.90;;;;;;5053910;28;20041;-67
2022/07/01 11:22:58;;;;;;;3.88;2.42;;;19.00;99.90;;;;;;5057228;28;20051;-70
2022/07/01 11:25:23;;;;;;;5.70;3.45;;;19.10;99.90;;;;;;5054124;28;20044;-68
2022/07/01 11:27:51;;;;;;;6.32;3.65;;;19.20;99.90;;;;;;5061004;28;20400;-69
2022/07/01 11:30:18;;;;;;;3.60;2.80;;;19.20;99.90;;;;;;5054025;28;20052;-69
2022/07/01 11:32:47;;;;;;;6.10;2.67;;;19.10;99.90;;;;;;5061000;28;20037;-69
2022/07/01 11:41:01;;;;;;;3.53;2.40;;;19.30;99.90;;;;;;5057873;28;20459;-68
2022/07/01 11:43:33;;;;;;;3.70;2.13;;;19.30;99.90;;;;;;5051023;28;20118;-68
2022/07/01 11:46:01;;;;;;;4.22;2.60;;;19.30;99.90;;;;;;5048174;28;20401;-69
2022/07/01 11:48:41;;;;;;;3.88;2.83;;;19.50;99.90;;;;;;5051077;28;20052;-68
2022/07/01 11:51:10;;;;;;;4.85;2.70;;;19.50;99.90;;;;;;5053573;28;20052;-68
2022/07/01 11:53:36;;;;;;;4.63;2.47;;;19.60;99.90;;;;;;5056929;28;20402;-68
2022/07/01 11:56:05;;;;;;;3.70;3.00;;;19.60;99.90;;;;;;5057873;28;20045;-68
2022/07/01 11:59:03;;;;;;;4.95;3.03;;;19.60;99.90;;;;;;5057712;28;20044;-68
2022/07/01 12:01:35;;;;;;;5.00;3.10;;;19.80;99.90;;;;;;5055082;28;20205;-68
2022/07/01 12:04:03;;;;;;;4.82;3.70;;;19.60;99.90;;;;;;5056162;28;20453;-67
2022/07/01 12:06:30;;;;;;;4.63;3.30;;;19.70;99.90;;;;;;5059787;28;20439;-68
2022/07/01 12:08:56;;;;;;;6.10;3.20;;;19.70;99.90;;;;;;5061004;28;20132;-68
2022/07/01 12:11:23;;;;;;;4.47;2.58;;;19.60;99.90;;;;;;5054881;28;20124;-67
2022/07/01 12:13:50;;;;;;;4.80;2.53;;;19.40;99.90;;;;;;5059352;28;20053;-67
2022/07/01 12:16:17;;;;;;;5.05;2.58;;;19.40;99.90;;;;;;5054256;28;20045;-67
2022/07/01 12:18:57;;;;;;;5.00;2.80;;;19.50;99.90;;;;;;5059171;28;20045;-68
2022/07/01 12:21:24;;;;;;;3.95;2.63;;;19.60;99.90;;;;;;5058043;28;20047;-68
2022/07/01 12:24:22;;;;;;;3.88;2.80;;;19.60;99.90;;;;;;5052267;28;20037;-69
2022/07/01 12:26:59;;;;;;;4.65;2.50;;;19.60;99.90;;;;;;5059747;28;20075;-68
2022/07/01 12:29:29;;;;;;;3.72;2.47;;;19.50;99.90;;;;;;5056366;28;20040;-69
2022/07/01 12:32:03;;;;;;;4.15;2.40;;;19.40;99.90;;;;;;5048152;28;20045;-69
2022/07/01 12:34:43;;;;;;;4.32;2.28;;;19.40;99.90;;;;;;5058089;28;20045;-68
2022/07/01 12:37:30;;;;;;;4.68;2.40;;;19.30;99.90;;;;;;5055344;28;20422;-68
2022/07/01 12:40:02;;;;;;;3.92;2.30;;;19.10;99.90;;;;;;5059641;28;20122;-67
2022/07/01 12:42:33;;;;;;;4.25;2.20;;;18.90;99.90;;;;;;5057392;28;20052;-67
2022/07/01 12:45:01;;;;;;;3.75;2.38;;;18.70;99.90;;;;;;5055941;28;20051;-67
2022/07/01 12:47:30;;;;;;;3.78;2.00;;;18.70;99.90;;;;;;5057231;28;20044;-67
2022/07/01 12:50:16;;;;;;;2.20;1.42;;;18.80;99.90;;;;;;5060327;28;20057;-67
2022/07/01 12:53:05;;;;;;;2.13;1.40;;;19.00;99.90;;;;;;5055053;28;20052;-68
2022/07/01 12:55:42;;;;;;;3.08;1.70;;;19.20;99.90;;;;;;5055764;28;20118;-67
2022/07/01 12:58:19;;;;;;;3.20;1.50;;;19.40;99.90;;;;;;5060785;28;20049;-67
2022/07/01 13:00:48;;;;;;;3.20;1.50;;;19.50;99.90;;;;;;5060416;28;20040;-67
2022/07/01 13:03:17;;;;;;;5.38;1.60;;;19.60;99.90;;;;;;5057930;28;20479;-68